Time;durP1;ratioP1;P1;durP2;ratioP2;P2;SDS_P1;SDS_P2;PMS_P1;PMS_P2;Temp;Humidity;BMP_temperature;BMP_pressure;BME280_temperature;BME280_humidity;BME280_pressure;Samples;Min_cycle;Max_cycle;Signal;HPM_P1;HPM_P2
2023/07/14 00:00:19;;;;;;;;;9.67;9.67;;;;;;;;4806397;29;89391;-91
2023/07/14 00:02:46;;;;;;;;;7.00;7.00;;;;;;;;4796479;29;378774;-91
2023/07/14 00:05:17;;;;;;;;;7.00;7.00;;;;;;;;4808264;29;28553;-91
2023/07/14 00:07:43;;;;;;;;;7.00;7.00;;;;;;;;4808302;29;28514;-91
2023/07/14 00:10:20;;;;;;;;;6.67;5.67;;;;;;;;4808473;29;28310;-92
2023/07/14 00:12:46;;;;;;;;;5.67;5.67;;;;;;;;4792021;29;30615;-91
2023/07/14 00:15:12;;;;;;;;;8.00;8.00;;;;;;;;4791834;29;28629;-91
2023/07/14 00:17:38;;;;;;;;;7.67;7.67;;;;;;;;4791971;29;28360;-92
2023/07/14 00:20:16;;;;;;;;;6.33;6.33;;;;;;;;4808338;29;28441;-91
2023/07/14 00:22:42;;;;;;;;;10.00;10.00;;;;;;;;4799230;29;29747;-92
2023/07/14 00:25:11;;;;;;;;;7.00;7.00;;;;;;;;4794861;29;29528;-92
2023/07/14 00:27:36;;;;;;;;;6.67;5.67;;;;;;;;4811588;29;28514;-91
2023/07/14 00:30:02;;;;;;;;;7.00;7.00;;;;;;;;4795259;29;28440;-92
2023/07/14 00:32:28;;;;;;;;;4.00;4.00;;;;;;;;4811626;29;28355;-91
2023/07/14 00:34:55;;;;;;;;;3.67;3.67;;;;;;;;4794505;29;28446;-92
2023/07/14 00:37:22;;;;;;;;;3.33;3.33;;;;;;;;4811541;29;28265;-92
2023/07/14 00:39:47;;;;;;;;;2.67;2.67;;;;;;;;4794847;29;28419;-91
2023/07/14 00:42:13;;;;;;;;;4.00;4.00;;;;;;;;4811233;29;29436;-92
2023/07/14 00:44:39;;;;;;;;;4.00;4.00;;;;;;;;4811113;29;28513;-91
2023/07/14 00:47:10;;;;;;;;;3.00;3.00;;;;;;;;4794868;29;28511;-92
2023/07/14 00:49:38;;;;;;;;;1.33;1.33;;;;;;;;4810893;29;28503;-91
2023/07/14 00:52:12;;;;;;;;;2.33;2.33;;;;;;;;4794727;29;30777;-91
2023/07/14 00:54:38;;;;;;;;;2.33;2.33;;;;;;;;4810901;29;28390;-91
2023/07/14 00:57:04;;;;;;;;;2.33;2.33;;;;;;;;4811177;29;28510;-91
2023/07/14 00:59:33;;;;;;;;;2.00;2.00;;;;;;;;4810966;29;28467;-91
2023/07/14 01:02:10;;;;;;;;;2.00;2.00;;;;;;;;4811087;29;28305;-91
2023/07/14 01:04:38;;;;;;;;;3.67;3.67;;;;;;;;4794135;29;28314;-91
2023/07/14 01:14:32;;;;;;;;;4.00;4.00;;;;;;;;4646763;29;232815876;-91
2023/07/14 01:23:29;;;;;;;;;;;;;;;;;;2;278985821;278985821;-91
2023/07/14 01:30:52;;;;;;;;;0.00;0.00;;;;;;;;2;230123772;230123772;-92
2023/07/14 01:39:48;;;;;;;;;3.50;3.50;;;;;;;;2;276180638;276180638;-91
2023/07/14 01:47:11;;;;;;;;;1.00;1.00;;;;;;;;2;228994087;228994087;-91
2023/07/14 01:54:33;;;;;;;;;2.50;2.50;;;;;;;;2;272785467;272785467;-91
2023/07/14 01:57:01;;;;;;;;;5.33;4.67;;;;;;;;4790586;29;28502;-92
2023/07/14 01:59:29;;;;;;;;;2.00;2.00;;;;;;;;4793751;29;28506;-91
2023/07/14 02:01:57;;;;;;;;;2.33;2.33;;;;;;;;4810297;29;28466;-91
2023/07/14 02:05:45;;;;;;;;;;;;;;;;;;2655863;29;147716081;-91
2023/07/14 02:13:15;;;;;;;;;2.50;2.50;;;;;;;;162449;29;213077924;-91
2023/07/14 02:21:28;;;;;;;;;1.50;1.50;;;;;;;;2;259295334;259295334;-92
2023/07/14 02:29:36;;;;;;;;;1.50;1.50;;;;;;;;2;213359355;213359355;-91
2023/07/14 02:40:49;;;;;;;;;1.50;1.50;;;;;;;;2;147375728;147375728;-91
2023/07/14 02:43:16;;;;;;;;;2.67;2.67;;;;;;;;4789507;29;28464;-91
2023/07/14 02:45:53;;;;;;;;;3.00;3.00;;;;;;;;4809591;29;28382;-91
2023/07/14 02:48:22;;;;;;;;;3.00;3.00;;;;;;;;4809322;29;28248;-91
2023/07/14 02:50:48;;;;;;;;;3.00;3.00;;;;;;;;4809180;29;28557;-91
2023/07/14 02:55:14;;;;;;;;;;;;;;;;;;1825718;29;210924837;-92
2023/07/14 02:57:39;;;;;;;;;3.50;3.50;;;;;;;;4806395;29;28455;-91
2023/07/14 03:00:07;;;;;;;;;3.33;3.33;;;;;;;;4809479;29;28554;-91
2023/07/14 03:02:33;;;;;;;;;4.50;4.50;;;;;;;;4809198;29;28388;-91
2023/07/14 03:04:58;;;;;;;;;4.67;4.67;;;;;;;;4809040;29;28238;-92
2023/07/14 03:07:24;;;;;;;;;5.67;5.67;;;;;;;;4564085;29;7376529;-91
2023/07/14 03:09:49;;;;;;;;;3.67;3.67;;;;;;;;4792778;29;28428;-92
2023/07/14 03:12:14;;;;;;;;;5.67;4.67;;;;;;;;4792617;29;28737;-92
2023/07/14 03:20:04;;;;;;;;;;;;;;;;;;895287;29;231282775;-91
2023/07/14 03:22:30;;;;;;;;;3.00;3.00;;;;;;;;2230960;29;77638182;-91
2023/07/14 03:25:28;;;;;;;;;;;;;;;;;;4014916;29;56446812;-91
2023/07/14 03:27:53;;;;;;;;;5.33;5.33;;;;;;;;4789620;29;28387;-91
2023/07/14 03:30:19;;;;;;;;;2.67;2.67;;;;;;;;4808899;29;28239;-91
2023/07/14 03:32:44;;;;;;;;;3.00;3.00;;;;;;;;4822998;29;28553;-92
2023/07/14 03:35:42;;;;;;;;;2.00;2.00;;;;;;;;3924532;29;45877832;-92
2023/07/14 03:38:08;;;;;;;;;4.00;4.00;;;;;;;;3246012;29;43338992;-92
2023/07/14 03:40:33;;;;;;;;;4.00;4.00;;;;;;;;4723997;29;2087149;-92
2023/07/14 03:42:59;;;;;;;;;2.00;2.00;;;;;;;;3603053;29;25091073;-91
2023/07/14 03:46:08;;;;;;;;;6.00;6.00;;;;;;;;4485954;29;53171673;-91
2023/07/14 03:48:34;;;;;;;;;5.67;5.67;;;;;;;;4768064;29;751348;-91
2023/07/14 03:51:03;;;;;;;;;2.67;2.67;;;;;;;;4791993;29;28415;-91
2023/07/14 03:53:28;;;;;;;;;6.00;6.00;;;;;;;;4808765;29;28231;-91
2023/07/14 03:55:53;;;;;;;;;5.00;5.00;;;;;;;;2888608;29;57575036;-91
2023/07/14 03:58:19;;;;;;;;;4.33;4.33;;;;;;;;4808506;29;28479;-91
2023/07/14 04:01:08;;;;;;;;;;;;;;;;;;2356976;29;86234478;-92
2023/07/14 04:03:33;;;;;;;;;6.00;4.00;;;;;;;;781255;29;97619059;-91
2023/07/14 04:11:59;;;;;;;;;;;;;;;;;;400097;29;217104495;-91
2023/07/14 04:18:24;;;;;;;;;5.50;5.50;;;;;;;;4;49663552;121939891;-91
2023/07/14 04:21:54;;;;;;;;;4.50;4.50;;;;;;;;1226955;29;93805318;-92
2023/07/14 04:24:19;;;;;;;;;3.00;3.00;;;;;;;;4805158;29;28261;-91
2023/07/14 04:26:45;;;;;;;;;3.33;3.33;;;;;;;;4791931;29;28328;-91
2023/07/14 04:29:11;;;;;;;;;2.67;2.67;;;;;;;;4808205;29;28476;-91
2023/07/14 04:31:38;;;;;;;;;4.00;4.00;;;;;;;;4808282;29;28529;-91
2023/07/14 04:34:03;;;;;;;;;5.00;5.00;;;;;;;;4807939;29;28246;-91
2023/07/14 04:36:28;;;;;;;;;3.67;3.67;;;;;;;;4808207;29;28265;-91
2023/07/14 04:39:01;;;;;;;;;4.00;4.00;;;;;;;;4791440;29;30298;-91
2023/07/14 04:41:27;;;;;;;;;4.67;4.67;;;;;;;;4807853;29;28254;-92
2023/07/14 04:43:52;;;;;;;;;4.33;4.33;;;;;;;;4791827;29;28348;-91
2023/07/14 04:46:17;;;;;;;;;5.00;5.00;;;;;;;;4791994;29;28341;-91
2023/07/14 04:48:44;;;;;;;;;5.00;5.00;;;;;;;;4807622;29;28317;-91
2023/07/14 04:51:09;;;;;;;;;3.33;3.33;;;;;;;;4807785;29;28497;-91
2023/07/14 04:53:34;;;;;;;;;7.00;7.00;;;;;;;;4808211;29;28353;-92
2023/07/14 04:55:59;;;;;;;;;8.33;8.33;;;;;;;;4807832;29;28319;-91
2023/07/14 04:58:25;;;;;;;;;4.00;4.00;;;;;;;;4791239;29;29817;-91
2023/07/14 05:00:50;;;;;;;;;7.00;7.00;;;;;;;;4807781;29;28244;-91
2023/07/14 05:03:16;;;;;;;;;4.33;4.33;;;;;;;;810465;29;105374584;-91
2023/07/14 05:05:41;;;;;;;;;4.00;4.00;;;;;;;;4807371;29;28427;-91
2023/07/14 05:08:07;;;;;;;;;4.67;4.67;;;;;;;;4810725;29;28314;-91
2023/07/14 05:10:33;;;;;;;;;4.33;4.33;;;;;;;;4794425;29;28528;-91
2023/07/14 05:12:59;;;;;;;;;4.67;4.67;;;;;;;;4810906;29;28494;-91
2023/07/14 05:15:27;;;;;;;;;6.67;6.67;;;;;;;;4810661;29;28487;-91
2023/07/14 05:17:52;;;;;;;;;4.33;4.33;;;;;;;;4794284;29;28597;-92
2023/07/14 05:20:19;;;;;;;;;6.00;6.00;;;;;;;;4810415;29;28431;-91
2023/07/14 05:22:45;;;;;;;;;5.00;5.00;;;;;;;;4810833;29;28350;-91
2023/07/14 05:25:11;;;;;;;;;4.33;4.33;;;;;;;;4793911;29;28362;-91
2023/07/14 05:27:38;;;;;;;;;4.00;4.00;;;;;;;;4810816;29;28391;-91
2023/07/14 05:30:03;;;;;;;;;5.33;5.33;;;;;;;;4794261;29;28574;-92
2023/07/14 05:32:28;;;;;;;;;5.33;5.33;;;;;;;;4810717;29;28366;-91
2023/07/14 05:34:54;;;;;;;;;3.00;3.00;;;;;;;;4793795;29;28429;-91
2023/07/14 05:37:20;;;;;;;;;5.00;5.00;;;;;;;;4665236;29;1932398;-91
2023/07/14 05:40:54;;;;;;;;;;;;;;;;;;495965;29;108097210;-91
2023/07/14 05:43:19;;;;;;;;;4.00;4.00;;;;;;;;4807393;29;28550;-91
2023/07/14 05:45:47;;;;;;;;;3.33;3.33;;;;;;;;4793987;29;29770;-91
2023/07/14 05:48:14;;;;;;;;;3.33;3.33;;;;;;;;4810238;29;28579;-91
2023/07/14 05:50:39;;;;;;;;;5.33;5.33;;;;;;;;4793767;29;28540;-92
2023/07/14 05:53:05;;;;;;;;;4.00;4.00;;;;;;;;4793940;29;28547;-91
2023/07/14 05:55:30;;;;;;;;;3.33;3.33;;;;;;;;4810310;29;28451;-91
2023/07/14 05:57:56;;;;;;;;;3.67;3.67;;;;;;;;4809906;29;28341;-91
2023/07/14 06:00:21;;;;;;;;;4.00;4.00;;;;;;;;4810352;29;28234;-91
2023/07/14 06:02:47;;;;;;;;;3.67;3.67;;;;;;;;4810201;29;28519;-91
2023/07/14 06:05:15;;;;;;;;;4.00;4.00;;;;;;;;4793398;29;30780;-92
2023/07/14 06:07:40;;;;;;;;;3.00;3.00;;;;;;;;4809894;29;28301;-91
2023/07/14 06:10:06;;;;;;;;;3.67;3.67;;;;;;;;4810098;29;28242;-91
2023/07/14 06:12:32;;;;;;;;;2.67;2.67;;;;;;;;4793681;29;28623;-91
2023/07/14 06:14:57;;;;;;;;;3.00;3.00;;;;;;;;4793680;29;28407;-91
2023/07/14 06:17:23;;;;;;;;;3.00;3.00;;;;;;;;4809696;29;28435;-90
2023/07/14 06:19:48;;;;;;;;;3.00;2.00;;;;;;;;4792571;29;28325;-91
2023/07/14 06:22:13;;;;;;;;;2.00;2.00;;;;;;;;4793463;29;28339;-92
2023/07/14 06:24:39;;;;;;;;;3.00;3.00;;;;;;;;4793326;29;28548;-91
2023/07/14 06:27:05;;;;;;;;;2.33;2.33;;;;;;;;4793297;29;28448;-91
2023/07/14 06:29:31;;;;;;;;;2.00;2.00;;;;;;;;4809906;29;28322;-91
2023/07/14 06:31:56;;;;;;;;;3.67;3.67;;;;;;;;4809715;29;28311;-92
2023/07/14 06:34:21;;;;;;;;;5.33;5.33;;;;;;;;4792906;29;30665;-91
2023/07/14 06:36:46;;;;;;;;;2.00;2.00;;;;;;;;4793178;29;29535;-91
2023/07/14 06:39:12;;;;;;;;;1.00;1.00;;;;;;;;4809541;29;28333;-92
2023/07/14 06:41:37;;;;;;;;;3.00;3.00;;;;;;;;4793234;29;28301;-92
2023/07/14 06:44:03;;;;;;;;;2.00;2.00;;;;;;;;4809678;29;28329;-92
2023/07/14 06:46:28;;;;;;;;;2.33;1.33;;;;;;;;4809444;29;28321;-91
2023/07/14 06:48:53;;;;;;;;;3.00;3.00;;;;;;;;4792786;29;28468;-92
2023/07/14 06:51:18;;;;;;;;;3.00;3.00;;;;;;;;4793177;29;28274;-91
2023/07/14 06:53:45;;;;;;;;;2.67;2.67;;;;;;;;4809363;29;29356;-91
2023/07/14 06:56:10;;;;;;;;;2.00;2.00;;;;;;;;4793067;29;28474;-91
2023/07/14 06:58:36;;;;;;;;;2.00;2.00;;;;;;;;4809178;29;28523;-92
2023/07/14 07:01:02;;;;;;;;;2.00;2.00;;;;;;;;4809391;29;28373;-92
2023/07/14 07:03:27;;;;;;;;;1.67;1.67;;;;;;;;4792893;29;28408;-91
2023/07/14 07:05:53;;;;;;;;;1.33;1.33;;;;;;;;4808830;29;28456;-91
2023/07/14 07:08:19;;;;;;;;;1.67;1.67;;;;;;;;4792943;29;28471;-92
2023/07/14 07:10:48;;;;;;;;;2.00;2.00;;;;;;;;4808980;29;28390;-92
2023/07/14 07:13:13;;;;;;;;;1.00;1.00;;;;;;;;4809328;29;28298;-92
2023/07/14 07:15:39;;;;;;;;;1.33;1.33;;;;;;;;4808989;29;28300;-92
2023/07/14 07:18:05;;;;;;;;;2.00;2.00;;;;;;;;4792679;29;28297;-92
2023/07/14 07:20:30;;;;;;;;;2.00;2.00;;;;;;;;4808678;29;28611;-92
2023/07/14 07:22:56;;;;;;;;;2.00;2.00;;;;;;;;4809062;29;29255;-92
2023/07/14 07:25:21;;;;;;;;;1.00;1.00;;;;;;;;4792289;29;28688;-92
2023/07/14 07:27:46;;;;;;;;;1.00;1.00;;;;;;;;4792732;29;28501;-92
2023/07/14 07:30:11;;;;;;;;;2.33;1.67;;;;;;;;4792630;29;28544;-92
2023/07/14 07:32:37;;;;;;;;;1.33;1.33;;;;;;;;4808976;29;28341;-92
2023/07/14 07:35:03;;;;;;;;;1.00;1.00;;;;;;;;4808372;29;28510;-92
2023/07/14 07:37:29;;;;;;;;;0.33;0.33;;;;;;;;4792633;29;28373;-92
2023/07/14 07:39:57;;;;;;;;;1.00;1.00;;;;;;;;4808699;29;28572;-92
2023/07/14 07:42:22;;;;;;;;;1.00;1.00;;;;;;;;4792252;29;29910;-93
2023/07/14 07:44:48;;;;;;;;;1.00;1.00;;;;;;;;4808527;29;28224;-92
2023/07/14 07:47:16;;;;;;;;;1.67;1.67;;;;;;;;4792485;29;28311;-92
2023/07/14 07:49:42;;;;;;;;;1.67;1.67;;;;;;;;4808251;29;28725;-92
2023/07/14 07:52:07;;;;;;;;;2.00;2.00;;;;;;;;4792289;29;28793;-92
2023/07/14 07:54:32;;;;;;;;;1.00;1.00;;;;;;;;4808397;29;28413;-92
2023/07/14 07:56:58;;;;;;;;;1.33;1.33;;;;;;;;4808516;29;28330;-92
2023/07/14 07:59:23;;;;;;;;;2.00;2.00;;;;;;;;4792208;29;28504;-91
2023/07/14 08:01:48;;;;;;;;;2.67;2.67;;;;;;;;4792179;29;29768;-92
2023/07/14 08:04:16;;;;;;;;;1.00;1.00;;;;;;;;4791720;29;28882;-92
2023/07/14 08:06:42;;;;;;;;;1.00;1.00;;;;;;;;4808596;29;28242;-92
2023/07/14 08:09:08;;;;;;;;;2.00;2.00;;;;;;;;4808370;29;28369;-92
2023/07/14 08:11:36;;;;;;;;;2.00;2.00;;;;;;;;4792058;29;29366;-92
2023/07/14 08:14:02;;;;;;;;;2.00;2.00;;;;;;;;4808143;29;28494;-92
2023/07/14 08:16:29;;;;;;;;;3.00;3.00;;;;;;;;4792162;29;28445;-92
2023/07/14 08:18:54;;;;;;;;;1.33;1.33;;;;;;;;4791390;29;28461;-91
2023/07/14 08:21:19;;;;;;;;;2.00;2.00;;;;;;;;4808275;29;28444;-92
2023/07/14 08:23:45;;;;;;;;;2.00;2.00;;;;;;;;4807981;29;28491;-92
2023/07/14 08:26:10;;;;;;;;;2.33;2.33;;;;;;;;4792021;29;28353;-92
2023/07/14 08:28:35;;;;;;;;;4.00;2.67;;;;;;;;4808279;29;28348;-92
2023/07/14 08:31:02;;;;;;;;;2.33;2.33;;;;;;;;4791833;29;29833;-92
2023/07/14 08:33:28;;;;;;;;;2.67;2.67;;;;;;;;4791486;29;29482;-92
2023/07/14 08:35:54;;;;;;;;;4.33;4.00;;;;;;;;4791736;29;28537;-92
2023/07/14 08:38:22;;;;;;;;;4.00;4.00;;;;;;;;4791751;29;28497;-92
2023/07/14 08:40:52;;;;;;;;;4.00;4.00;;;;;;;;4791497;29;30450;-91
2023/07/14 08:43:17;;;;;;;;;4.67;4.67;;;;;;;;4794531;29;29032;-92
2023/07/14 08:45:49;;;;;;;;;2.67;2.67;;;;;;;;4794984;29;28561;-92
2023/07/14 08:48:23;;;;;;;;;3.00;3.00;;;;;;;;4811169;29;28397;-91
2023/07/14 08:50:50;;;;;;;;;2.00;2.00;;;;;;;;4794476;29;30696;-92
2023/07/14 08:53:20;;;;;;;;;2.00;2.00;;;;;;;;4794479;29;28906;-92
2023/07/14 08:55:45;;;;;;;;;2.00;2.00;;;;;;;;4794686;29;28450;-92
2023/07/14 08:58:14;;;;;;;;;2.00;2.00;;;;;;;;4811047;29;28310;-92
2023/07/14 09:00:42;;;;;;;;;2.00;2.00;;;;;;;;4794533;29;30043;-92
2023/07/14 09:03:26;;;;;;;;;2.33;2.33;;;;;;;;4794585;29;29364;-92
2023/07/14 09:05:53;;;;;;;;;2.00;2.00;;;;;;;;4810656;29;28269;-92
2023/07/14 09:08:21;;;;;;;;;2.00;2.00;;;;;;;;4811297;29;28308;-92
2023/07/14 09:10:53;;;;;;;;;2.00;2.00;;;;;;;;4794197;29;28533;-92
2023/07/14 09:13:33;;;;;;;;;3.00;3.00;;;;;;;;4794403;29;28612;-92
2023/07/14 09:16:02;;;;;;;;;3.00;3.00;;;;;;;;4810841;29;28344;-92
2023/07/14 09:18:36;;;;;;;;;2.00;2.00;;;;;;;;4810731;29;28567;-92
2023/07/14 09:21:04;;;;;;;;;1.00;1.00;;;;;;;;4794451;29;29880;-92
2023/07/14 09:23:44;;;;;;;;;2.00;2.00;;;;;;;;4794118;29;28352;-92
2023/07/14 09:26:16;;;;;;;;;2.00;2.00;;;;;;;;4810882;29;28490;-92
2023/07/14 09:28:43;;;;;;;;;1.00;1.00;;;;;;;;4810679;29;28250;-92
2023/07/14 09:31:17;;;;;;;;;1.00;1.00;;;;;;;;4810676;29;28506;-92
2023/07/14 09:33:51;;;;;;;;;3.33;3.33;;;;;;;;4793811;29;29727;-92
2023/07/14 09:36:18;;;;;;;;;1.00;1.00;;;;;;;;4794288;29;28333;-92
2023/07/14 09:38:55;;;;;;;;;2.00;2.00;;;;;;;;4793734;29;28435;-92
2023/07/14 09:41:22;;;;;;;;;1.33;1.33;;;;;;;;4810422;29;28450;-92
2023/07/14 09:43:47;;;;;;;;;2.00;2.00;;;;;;;;4794058;29;28273;-92
2023/07/14 09:46:14;;;;;;;;;1.00;1.00;;;;;;;;4793973;29;28470;-92
2023/07/14 09:48:45;;;;;;;;;4.00;3.00;;;;;;;;4809988;29;28424;-92
2023/07/14 09:51:13;;;;;;;;;3.00;3.00;;;;;;;;4810143;29;29405;-92
2023/07/14 09:53:39;;;;;;;;;2.00;2.00;;;;;;;;4792851;29;28349;-92
2023/07/14 09:56:04;;;;;;;;;2.00;2.00;;;;;;;;4810171;29;28447;-92
2023/07/14 09:58:31;;;;;;;;;2.33;2.33;;;;;;;;4793780;29;28348;-91
2023/07/14 10:00:59;;;;;;;;;2.00;2.00;;;;;;;;4793741;29;29520;-92
2023/07/14 10:03:30;;;;;;;;;1.67;1.67;;;;;;;;4793599;29;28555;-92
2023/07/14 10:05:55;;;;;;;;;1.67;1.67;;;;;;;;4810030;29;28258;-93
2023/07/14 10:08:26;;;;;;;;;2.67;2.67;;;;;;;;4810230;29;28265;-92
2023/07/14 10:10:53;;;;;;;;;1.00;1.00;;;;;;;;4793552;29;29956;-92
2023/07/14 10:13:26;;;;;;;;;2.00;2.00;;;;;;;;4810069;29;28232;-92
2023/07/14 10:16:03;;;;;;;;;2.00;2.00;;;;;;;;4793556;29;28436;-92
2023/07/14 10:21:05;;;;;;;;;2.67;2.67;;;;;;;;4772094;29;28526;-92
2023/07/14 10:23:31;;;;;;;;;2.00;2.00;;;;;;;;4773732;29;28499;-92
2023/07/14 10:25:56;;;;;;;;;1.00;1.00;;;;;;;;4757654;29;28576;-92
2023/07/14 10:28:28;;;;;;;;;1.00;1.00;;;;;;;;4757502;29;28460;-92
2023/07/14 10:31:08;;;;;;;;;2.00;2.00;;;;;;;;4755870;30;28259;-92
2023/07/14 10:33:52;;;;;;;;;1.00;1.00;;;;;;;;4739224;30;28887;-92
2023/07/14 10:36:21;;;;;;;;;2.33;2.33;;;;;;;;4739759;30;28539;-92
2023/07/14 10:38:58;;;;;;;;;2.00;2.00;;;;;;;;4739522;30;28260;-92
2023/07/14 10:41:24;;;;;;;;;1.33;1.33;;;;;;;;4739350;30;29834;-92
2023/07/14 10:43:59;;;;;;;;;1.67;1.67;;;;;;;;4739615;30;28714;-91
2023/07/14 10:46:28;;;;;;;;;2.67;2.67;;;;;;;;4755532;29;28517;-92
2023/07/14 10:49:20;;;;;;;;;2.00;2.00;;;;;;;;4739310;30;28441;-92
2023/07/14 10:51:51;;;;;;;;;2.00;2.00;;;;;;;;4730998;30;28554;-92
2023/07/14 10:54:19;;;;;;;;;2.00;2.00;;;;;;;;4739200;30;28568;-92
2023/07/14 10:56:52;;;;;;;;;2.00;2.00;;;;;;;;4757690;29;28322;-92
2023/07/14 10:59:30;;;;;;;;;1.00;1.00;;;;;;;;4759060;29;28465;-92
2023/07/14 11:02:02;;;;;;;;;1.33;1.33;;;;;;;;4755448;30;28333;-92
2023/07/14 11:04:37;;;;;;;;;2.67;2.67;;;;;;;;4738597;30;28899;-92
2023/07/14 11:07:02;;;;;;;;;2.67;2.67;;;;;;;;4755370;30;28270;-92
2023/07/14 11:09:31;;;;;;;;;2.00;2.00;;;;;;;;4739223;30;28703;-92
2023/07/14 11:12:12;;;;;;;;;2.00;2.00;;;;;;;;4739156;30;29850;-92
2023/07/14 11:14:47;;;;;;;;;2.00;2.00;;;;;;;;4739182;30;28949;-92
2023/07/14 11:17:16;;;;;;;;;1.00;1.00;;;;;;;;4740005;29;28350;-92
2023/07/14 11:20:00;;;;;;;;;1.67;1.67;;;;;;;;4730510;30;28461;-92
2023/07/14 11:22:39;;;;;;;;;1.67;1.67;;;;;;;;4737192;30;29261;-92
2023/07/14 11:25:09;;;;;;;;;3.00;3.00;;;;;;;;4721154;30;29105;-93
2023/07/14 11:27:46;;;;;;;;;1.00;1.00;;;;;;;;4737346;30;28307;-92
2023/07/14 11:30:12;;;;;;;;;1.33;1.33;;;;;;;;4721450;30;28622;-92
2023/07/14 11:32:47;;;;;;;;;2.00;2.00;;;;;;;;4721333;30;29975;-92
2023/07/14 11:35:24;;;;;;;;;3.33;3.33;;;;;;;;4720760;30;29458;-92
2023/07/14 11:38:06;;;;;;;;;1.00;1.00;;;;;;;;4721389;30;28296;-92
2023/07/14 11:40:39;;;;;;;;;2.00;2.00;;;;;;;;4737316;30;28513;-93
2023/07/14 11:43:08;;;;;;;;;2.00;2.00;;;;;;;;4736955;30;28669;-92
2023/07/14 11:45:36;;;;;;;;;1.67;1.67;;;;;;;;4721153;30;28257;-92
2023/07/14 11:48:02;;;;;;;;;2.00;2.00;;;;;;;;4721020;30;28271;-92
2023/07/14 11:50:31;;;;;;;;;2.33;2.33;;;;;;;;4736982;30;28259;-92
2023/07/14 11:52:57;;;;;;;;;1.33;1.33;;;;;;;;4720910;30;28711;-92
2023/07/14 11:55:23;;;;;;;;;1.00;1.00;;;;;;;;4720890;30;29114;-92
2023/07/14 11:57:50;;;;;;;;;2.00;2.00;;;;;;;;4727569;30;28521;-92
2023/07/14 12:00:24;;;;;;;;;1.00;1.00;;;;;;;;4736976;30;28508;-93
2023/07/14 12:03:03;;;;;;;;;1.00;1.00;;;;;;;;4720769;30;29964;-92
2023/07/14 12:05:32;;;;;;;;;1.67;1.67;;;;;;;;4736536;30;28303;-92
2023/07/14 12:08:07;;;;;;;;;4.00;4.00;;;;;;;;4736855;30;28449;-92
2023/07/14 12:10:38;;;;;;;;;2.33;2.33;;;;;;;;4720775;30;28350;-92
2023/07/14 12:13:18;;;;;;;;;2.00;2.00;;;;;;;;4736747;30;28459;-92
2023/07/14 12:15:56;;;;;;;;;2.00;2.00;;;;;;;;4720238;30;28477;-93
2023/07/14 12:18:37;;;;;;;;;1.33;1.33;;;;;;;;4737319;30;28385;-92
2023/07/14 12:21:15;;;;;;;;;2.67;2.67;;;;;;;;4710560;30;28422;-92
2023/07/14 12:23:44;;;;;;;;;2.67;2.67;;;;;;;;4748111;30;28380;-92
2023/07/14 12:26:09;;;;;;;;;3.00;3.00;;;;;;;;4720555;30;28879;-93
2023/07/14 12:28:36;;;;;;;;;2.00;2.00;;;;;;;;4748228;30;28242;-92
2023/07/14 12:31:04;;;;;;;;;2.00;2.00;;;;;;;;4720935;30;28506;-92
2023/07/14 12:33:30;;;;;;;;;2.00;2.00;;;;;;;;4720165;30;29398;-92
2023/07/14 12:35:55;;;;;;;;;2.00;2.00;;;;;;;;4745588;30;28570;-92
2023/07/14 12:38:21;;;;;;;;;1.67;1.67;;;;;;;;4754061;30;28468;-92
2023/07/14 12:40:48;;;;;;;;;2.00;2.00;;;;;;;;4738284;30;28672;-92
2023/07/14 12:43:32;;;;;;;;;2.33;2.33;;;;;;;;4738525;30;28389;-92
2023/07/14 12:45:59;;;;;;;;;2.33;2.33;;;;;;;;4736401;30;28332;-92
2023/07/14 12:48:28;;;;;;;;;2.67;2.67;;;;;;;;4753596;30;28325;-92
2023/07/14 12:50:55;;;;;;;;;1.67;1.67;;;;;;;;4738053;30;28513;-92
2023/07/14 12:53:21;;;;;;;;;1.00;1.00;;;;;;;;4731591;30;29911;-93
2023/07/14 12:55:46;;;;;;;;;2.00;2.00;;;;;;;;4736596;30;28363;-92
2023/07/14 12:58:21;;;;;;;;;2.33;2.33;;;;;;;;4754040;30;28426;-92
2023/07/14 13:00:52;;;;;;;;;4.00;3.00;;;;;;;;4740758;30;28544;-92
2023/07/14 13:03:17;;;;;;;;;3.00;3.00;;;;;;;;4744079;30;28499;-92
2023/07/14 13:05:45;;;;;;;;;3.00;3.00;;;;;;;;4737560;30;28961;-92
2023/07/14 13:08:17;;;;;;;;;2.00;2.00;;;;;;;;4737895;30;28410;-92
2023/07/14 13:10:42;;;;;;;;;2.00;2.00;;;;;;;;4737780;30;28485;-92
2023/07/14 13:13:12;;;;;;;;;2.67;2.67;;;;;;;;4737885;30;28577;-93
2023/07/14 13:15:37;;;;;;;;;2.33;2.33;;;;;;;;4750642;30;28292;-92
2023/07/14 13:18:08;;;;;;;;;1.67;1.67;;;;;;;;4746027;30;28305;-92
2023/07/14 13:20:38;;;;;;;;;2.33;2.33;;;;;;;;4752586;30;29220;-92
2023/07/14 13:23:16;;;;;;;;;2.33;2.33;;;;;;;;4736436;30;29853;-92
2023/07/14 13:25:54;;;;;;;;;2.67;2.67;;;;;;;;4752184;30;28598;-92
2023/07/14 13:28:35;;;;;;;;;0.00;0.00;;;;;;;;4738323;30;28354;-91
2023/07/14 13:34:19;;;;;;;;;3.00;3.00;;;;;;;;4735086;30;28340;-92
2023/07/14 13:36:45;;;;;;;;;3.00;3.00;;;;;;;;4739528;30;28804;-92
2023/07/14 13:39:15;;;;;;;;;3.00;3.00;;;;;;;;4730249;30;28346;-92
2023/07/14 13:41:45;;;;;;;;;3.00;3.00;;;;;;;;4737964;30;28251;-92
2023/07/14 13:44:29;;;;;;;;;5.00;3.00;;;;;;;;4732164;30;31229;-92
2023/07/14 13:46:59;;;;;;;;;0.00;0.00;;;;;;;;4755660;29;28434;-92
2023/07/14 13:49:25;;;;;;;;;2.00;2.00;;;;;;;;4742244;30;28411;-92
2023/07/14 13:51:52;;;;;;;;;2.00;2.00;;;;;;;;4732429;30;28236;-92
2023/07/14 13:54:18;;;;;;;;;3.67;3.67;;;;;;;;4750738;30;28484;-92
2023/07/14 13:56:46;;;;;;;;;2.00;2.00;;;;;;;;4755304;30;28354;-93
2023/07/14 13:59:13;;;;;;;;;3.00;3.00;;;;;;;;4737824;30;28636;-92
2023/07/14 14:01:38;;;;;;;;;3.00;3.00;;;;;;;;4721777;30;28498;-92
2023/07/14 14:04:10;;;;;;;;;3.00;3.00;;;;;;;;4732966;30;29983;-92
2023/07/14 14:06:35;;;;;;;;;2.33;2.33;;;;;;;;4737672;30;28361;-92
2023/07/14 14:09:01;;;;;;;;;3.00;3.00;;;;;;;;4751218;30;28467;-92
2023/07/14 14:11:26;;;;;;;;;2.67;2.67;;;;;;;;4755329;30;28508;-92
2023/07/14 14:13:51;;;;;;;;;3.00;3.00;;;;;;;;4738950;30;29577;-92
2023/07/14 14:16:20;;;;;;;;;2.33;2.33;;;;;;;;4755081;30;28436;-92
2023/07/14 14:28:38;;;;;;;;;1.00;1.00;;;;;;;;5090791;28;31817;-91
2023/07/14 14:31:05;;;;;;;;;2.00;2.00;;;;;;;;5073824;28;28294;-91
2023/07/14 14:33:32;;;;;;;;;3.00;3.00;;;;;;;;5073550;28;28469;-91
2023/07/14 14:35:58;;;;;;;;;3.00;3.00;;;;;;;;5063736;28;28489;-91
2023/07/14 14:38:30;;;;;;;;;2.33;2.33;;;;;;;;5070465;28;28448;-91
2023/07/14 14:40:56;;;;;;;;;3.67;3.67;;;;;;;;5073707;28;28537;-91
2023/07/14 14:43:26;;;;;;;;;3.25;3.25;;;;;;;;5043547;28;593978;-91
2023/07/14 14:45:52;;;;;;;;;2.67;2.67;;;;;;;;5073983;28;28417;-91
2023/07/14 14:48:19;;;;;;;;;3.00;3.00;;;;;;;;5073022;28;29454;-91
2023/07/14 14:50:46;;;;;;;;;2.00;2.00;;;;;;;;5072305;28;28455;-90
2023/07/14 14:53:12;;;;;;;;;2.33;2.33;;;;;;;;5073449;28;28444;-91
2023/07/14 14:55:38;;;;;;;;;2.67;2.67;;;;;;;;5073514;28;28533;-91
2023/07/14 14:58:05;;;;;;;;;3.00;3.00;;;;;;;;5071883;28;29981;-91
2023/07/14 15:00:32;;;;;;;;;3.00;3.00;;;;;;;;5073365;28;28326;-91
2023/07/14 15:02:58;;;;;;;;;2.00;2.00;;;;;;;;5072027;28;28428;-91
2023/07/14 15:05:23;;;;;;;;;2.33;2.33;;;;;;;;5071829;28;28568;-91
2023/07/14 15:07:49;;;;;;;;;2.00;2.00;;;;;;;;5071807;28;29942;-91
2023/07/14 15:10:15;;;;;;;;;3.00;3.00;;;;;;;;5071972;28;28629;-92
2023/07/14 15:12:43;;;;;;;;;3.00;3.00;;;;;;;;5071972;28;28349;-91
2023/07/14 15:15:29;;;;;;;;;3.67;3.33;;;;;;;;5073361;28;28527;-91
2023/07/14 15:17:56;;;;;;;;;5.00;5.00;;;;;;;;5071317;28;28565;-91
2023/07/14 15:20:21;;;;;;;;;3.00;3.00;;;;;;;;5105139;27;29046;-91
2023/07/14 15:22:46;;;;;;;;;3.00;3.00;;;;;;;;5073380;28;28409;-91
2023/07/14 15:25:13;;;;;;;;;2.67;2.67;;;;;;;;5068477;28;28563;-91
2023/07/14 15:27:39;;;;;;;;;3.00;3.00;;;;;;;;5073104;28;28273;-91
2023/07/14 15:30:04;;;;;;;;;3.67;3.67;;;;;;;;5071528;28;29347;-91
2023/07/14 15:32:30;;;;;;;;;2.00;2.00;;;;;;;;5058817;28;28274;-91
2023/07/14 15:34:55;;;;;;;;;3.33;3.33;;;;;;;;5059253;28;28247;-91
2023/07/14 15:37:21;;;;;;;;;4.00;4.00;;;;;;;;5059460;28;28261;-91
2023/07/14 15:39:46;;;;;;;;;2.33;2.33;;;;;;;;5059216;28;28246;-91
2023/07/14 15:42:12;;;;;;;;;3.00;3.00;;;;;;;;5059396;28;28326;-91
2023/07/14 15:44:38;;;;;;;;;3.67;3.67;;;;;;;;5059336;28;28370;-91
2023/07/14 15:47:03;;;;;;;;;4.00;4.00;;;;;;;;5057947;28;29708;-91
2023/07/14 15:49:29;;;;;;;;;2.33;2.33;;;;;;;;5057499;28;28491;-91
2023/07/14 15:51:56;;;;;;;;;4.67;4.00;;;;;;;;5057872;28;28444;-91
2023/07/14 15:54:22;;;;;;;;;2.67;2.67;;;;;;;;5091525;28;28542;-91
2023/07/14 15:56:47;;;;;;;;;4.67;4.67;;;;;;;;5059139;28;29616;-91
2023/07/14 15:59:12;;;;;;;;;3.00;3.00;;;;;;;;5057505;28;28908;-91
2023/07/14 16:01:38;;;;;;;;;3.33;3.33;;;;;;;;5057981;28;28361;-91
2023/07/14 16:04:03;;;;;;;;;3.00;3.00;;;;;;;;5058825;28;28500;-91
2023/07/14 16:06:29;;;;;;;;;2.00;2.00;;;;;;;;5057551;28;30937;-91
2023/07/14 16:08:55;;;;;;;;;2.00;2.00;;;;;;;;5058652;28;28575;-91
2023/07/14 16:11:27;;;;;;;;;2.33;2.33;;;;;;;;5057588;28;28358;-91
2023/07/14 16:13:52;;;;;;;;;2.00;2.00;;;;;;;;5058869;28;28546;-91
2023/07/14 16:16:17;;;;;;;;;2.00;2.00;;;;;;;;5057427;28;29600;-91
2023/07/14 16:18:43;;;;;;;;;2.00;2.00;;;;;;;;5058132;28;28311;-91
2023/07/14 16:21:20;;;;;;;;;2.00;2.00;;;;;;;;5057450;28;28277;-91
2023/07/14 16:23:45;;;;;;;;;2.00;2.00;;;;;;;;5057336;28;28626;-91